Terminal Aerodrome Forecast
Issued by NWS

Home | Current Version | Previous Version | Text Only | Print | Product List | Glossary On
Versions: 1 2 3 4 5 6 7 8 9 10 11 12 13 14 15
000
FTUS44 KEPZ 220500
TAFDMN
TAF
KDMN 220534Z 2206/2306 10011KT P6SM VCTS SCT060CB SCT120 BKN250
      TEMPO 2209/2213 VRB20G30KT 2SM TSRA SCT010 BKN025CB OVC050
     FM221300 07010KT 6SM -SHRA BKN035 BKN080 OVC200
      TEMPO 2213/2217 VRB20G30KT 3SM TSRA BKN020CB OVC050
     FM221800 11012KT P6SM VCTS BKN040CB BKN080 BKN200
     FM230000 10010KT P6SM VCTS BKN040CB BKN100 BKN200
      TEMPO 2300/2304 VRB15G25KT 3SM TSRA BKN030CB OVC100=

USA.gov is the U.S. government's official web portal to all federal, state and local government web resources and services.